sensor_id;sensor_type;location;lat;lon;timestamp;P1;durP1;ratioP1;P2;durP2;ratioP2
71600;SDS011;59446;52.192;4.628;2022-11-06T00:01:38;2.60;;;1.00;;
71600;SDS011;59446;52.192;4.628;2022-11-06T00:04:03;1.90;;;0.93;;
71600;SDS011;59446;52.192;4.628;2022-11-06T00:06:29;2.70;;;1.00;;
71600;SDS011;59446;52.192;4.628;2022-11-06T00:09:13;2.72;;;0.90;;
71600;SDS011;59446;52.192;4.628;2022-11-06T00:11:40;1.13;;;0.80;;
71600;SDS011;59446;52.192;4.628;2022-11-06T00:14:06;3.47;;;0.90;;
71600;SDS011;59446;52.192;4.628;2022-11-06T00:16:32;1.95;;;0.90;;
71600;SDS011;59446;52.192;4.628;2022-11-06T00:19:00;2.47;;;0.90;;
71600;SDS011;59446;52.192;4.628;2022-11-06T00:21:27;2.78;;;1.00;;
71600;SDS011;59446;52.192;4.628;2022-11-06T00:23:54;2.35;;;1.00;;
71600;SDS011;59446;52.192;4.628;2022-11-06T00:26:23;1.87;;;0.80;;
71600;SDS011;59446;52.192;4.628;2022-11-06T00:28:50;1.90;;;0.95;;
71600;SDS011;59446;52.192;4.628;2022-11-06T00:31:20;1.60;;;0.80;;
71600;SDS011;59446;52.192;4.628;2022-11-06T00:33:47;2.17;;;0.90;;
71600;SDS011;59446;52.192;4.628;2022-11-06T00:36:17;2.70;;;0.80;;
71600;SDS011;59446;52.192;4.628;2022-11-06T00:38:44;1.83;;;1.00;;
71600;SDS011;59446;52.192;4.628;2022-11-06T00:41:11;2.70;;;1.20;;
71600;SDS011;59446;52.192;4.628;2022-11-06T00:43:38;2.23;;;1.00;;
71600;SDS011;59446;52.192;4.628;2022-11-06T00:46:08;2.83;;;1.10;;
71600;SDS011;59446;52.192;4.628;2022-11-06T00:48:34;1.95;;;1.00;;
71600;SDS011;59446;52.192;4.628;2022-11-06T00:51:04;2.10;;;0.90;;
71600;SDS011;59446;52.192;4.628;2022-11-06T00:53:31;2.08;;;0.85;;
71600;SDS011;59446;52.192;4.628;2022-11-06T00:56:07;1.75;;;0.93;;
71600;SDS011;59446;52.192;4.628;2022-11-06T00:58:32;1.80;;;0.87;;
71600;SDS011;59446;52.192;4.628;2022-11-06T01:01:09;1.45;;;1.00;;
71600;SDS011;59446;52.192;4.628;2022-11-06T01:03:39;1.83;;;0.82;;
71600;SDS011;59446;52.192;4.628;2022-11-06T01:06:06;2.60;;;1.00;;
71600;SDS011;59446;52.192;4.628;2022-11-06T01:08:36;1.05;;;0.75;;
71600;SDS011;59446;52.192;4.628;2022-11-06T01:11:09;1.40;;;0.80;;
71600;SDS011;59446;52.192;4.628;2022-11-06T01:13:36;1.50;;;0.80;;
71600;SDS011;59446;52.192;4.628;2022-11-06T01:16:06;1.98;;;0.82;;
71600;SDS011;59446;52.192;4.628;2022-11-06T01:18:33;2.00;;;0.90;;
71600;SDS011;59446;52.192;4.628;2022-11-06T01:21:02;1.70;;;0.93;;
71600;SDS011;59446;52.192;4.628;2022-11-06T01:23:31;2.20;;;0.85;;
71600;SDS011;59446;52.192;4.628;2022-11-06T01:25:57;1.47;;;0.73;;
71600;SDS011;59446;52.192;4.628;2022-11-06T01:28:24;3.08;;;0.80;;
71600;SDS011;59446;52.192;4.628;2022-11-06T01:30:49;2.77;;;0.90;;
71600;SDS011;59446;52.192;4.628;2022-11-06T01:33:15;2.47;;;0.80;;
71600;SDS011;59446;52.192;4.628;2022-11-06T01:35:44;1.60;;;0.70;;
71600;SDS011;59446;52.192;4.628;2022-11-06T01:38:15;2.00;;;0.87;;
71600;SDS011;59446;52.192;4.628;2022-11-06T01:40:42;3.10;;;1.00;;
71600;SDS011;59446;52.192;4.628;2022-11-06T01:46:06;1.80;;;0.87;;
71600;SDS011;59446;52.192;4.628;2022-11-06T01:48:32;1.67;;;0.77;;
71600;SDS011;59446;52.192;4.628;2022-11-06T01:50:57;2.67;;;0.80;;
71600;SDS011;59446;52.192;4.628;2022-11-06T01:53:23;1.60;;;0.80;;
71600;SDS011;59446;52.192;4.628;2022-11-06T01:55:52;2.00;;;0.80;;
71600;SDS011;59446;52.192;4.628;2022-11-06T01:58:20;1.83;;;0.80;;
71600;SDS011;59446;52.192;4.628;2022-11-06T02:00:48;1.88;;;0.80;;
71600;SDS011;59446;52.192;4.628;2022-11-06T02:03:14;1.65;;;0.85;;
71600;SDS011;59446;52.192;4.628;2022-11-06T02:05:40;1.77;;;0.90;;
71600;SDS011;59446;52.192;4.628;2022-11-06T02:08:07;3.00;;;1.40;;
71600;SDS011;59446;52.192;4.628;2022-11-06T02:10:35;1.52;;;0.88;;
71600;SDS011;59446;52.192;4.628;2022-11-06T02:18:32;1.52;;;0.75;;
71600;SDS011;59446;52.192;4.628;2022-11-06T02:21:29;1.05;;;0.70;;
71600;SDS011;59446;52.192;4.628;2022-11-06T02:24:41;1.13;;;0.70;;
71600;SDS011;59446;52.192;4.628;2022-11-06T02:27:06;2.95;;;1.13;;
71600;SDS011;59446;52.192;4.628;2022-11-06T02:32:45;2.47;;;0.95;;
71600;SDS011;59446;52.192;4.628;2022-11-06T02:35:32;2.47;;;1.07;;
71600;SDS011;59446;52.192;4.628;2022-11-06T02:38:23;1.58;;;0.68;;
71600;SDS011;59446;52.192;4.628;2022-11-06T02:40:51;1.10;;;0.70;;
71600;SDS011;59446;52.192;4.628;2022-11-06T02:43:21;1.77;;;0.90;;
71600;SDS011;59446;52.192;4.628;2022-11-06T02:45:56;0.90;;;0.70;;
71600;SDS011;59446;52.192;4.628;2022-11-06T02:48:28;1.63;;;1.00;;
71600;SDS011;59446;52.192;4.628;2022-11-06T02:50:58;0.93;;;0.80;;
71600;SDS011;59446;52.192;4.628;2022-11-06T02:53:27;1.30;;;0.75;;
71600;SDS011;59446;52.192;4.628;2022-11-06T02:55:56;1.30;;;0.68;;
71600;SDS011;59446;52.192;4.628;2022-11-06T02:58:35;1.73;;;1.05;;
71600;SDS011;59446;52.192;4.628;2022-11-06T03:01:12;1.60;;;0.90;;
71600;SDS011;59446;52.192;4.628;2022-11-06T03:03:42;2.90;;;1.02;;
71600;SDS011;59446;52.192;4.628;2022-11-06T03:06:16;1.67;;;0.80;;
71600;SDS011;59446;52.192;4.628;2022-11-06T03:08:50;1.83;;;0.90;;
71600;SDS011;59446;52.192;4.628;2022-11-06T03:11:23;1.27;;;0.80;;
71600;SDS011;59446;52.192;4.628;2022-11-06T03:14:02;2.05;;;1.10;;
71600;SDS011;59446;52.192;4.628;2022-11-06T03:19:38;2.13;;;0.80;;
71600;SDS011;59446;52.192;4.628;2022-11-06T03:22:25;3.10;;;0.73;;
71600;SDS011;59446;52.192;4.628;2022-11-06T03:25:17;2.50;;;0.88;;
71600;SDS011;59446;52.192;4.628;2022-11-06T03:27:51;1.70;;;0.80;;
71600;SDS011;59446;52.192;4.628;2022-11-06T03:30:19;1.67;;;0.93;;
71600;SDS011;59446;52.192;4.628;2022-11-06T03:32:48;3.45;;;1.20;;
71600;SDS011;59446;52.192;4.628;2022-11-06T03:35:21;1.38;;;0.70;;
71600;SDS011;59446;52.192;4.628;2022-11-06T03:37:57;2.03;;;0.90;;
71600;SDS011;59446;52.192;4.628;2022-11-06T03:40:27;1.25;;;0.70;;
71600;SDS011;59446;52.192;4.628;2022-11-06T03:42:57;1.33;;;0.85;;
71600;SDS011;59446;52.192;4.628;2022-11-06T03:45:26;2.03;;;0.80;;
71600;SDS011;59446;52.192;4.628;2022-11-06T03:47:54;1.13;;;0.77;;
71600;SDS011;59446;52.192;4.628;2022-11-06T03:50:50;1.40;;;0.60;;
71600;SDS011;59446;52.192;4.628;2022-11-06T03:53:24;1.67;;;1.00;;
71600;SDS011;59446;52.192;4.628;2022-11-06T03:56:01;1.00;;;0.70;;
71600;SDS011;59446;52.192;4.628;2022-11-06T03:58:32;1.67;;;0.80;;
71600;SDS011;59446;52.192;4.628;2022-11-06T04:01:02;1.52;;;0.70;;
71600;SDS011;59446;52.192;4.628;2022-11-06T04:03:50;1.40;;;0.83;;
71600;SDS011;59446;52.192;4.628;2022-11-06T04:06:31;1.50;;;0.90;;
71600;SDS011;59446;52.192;4.628;2022-11-06T04:09:11;1.20;;;0.80;;
71600;SDS011;59446;52.192;4.628;2022-11-06T04:11:58;2.03;;;1.10;;
71600;SDS011;59446;52.192;4.628;2022-11-06T04:14:46;1.60;;;0.93;;
71600;SDS011;59446;52.192;4.628;2022-11-06T04:17:14;1.17;;;0.70;;
71600;SDS011;59446;52.192;4.628;2022-11-06T04:19:44;2.03;;;0.82;;
71600;SDS011;59446;52.192;4.628;2022-11-06T04:39:28;1.40;;;0.80;;
71600;SDS011;59446;52.192;4.628;2022-11-06T04:45:01;2.05;;;0.77;;
71600;SDS011;59446;52.192;4.628;2022-11-06T04:47:30;1.50;;;0.90;;
71600;SDS011;59446;52.192;4.628;2022-11-06T04:49:56;1.23;;;0.70;;
71600;SDS011;59446;52.192;4.628;2022-11-06T04:52:26;1.42;;;0.80;;
71600;SDS011;59446;52.192;4.628;2022-11-06T04:54:53;1.30;;;0.65;;
71600;SDS011;59446;52.192;4.628;2022-11-06T04:57:21;1.57;;;0.80;;
71600;SDS011;59446;52.192;4.628;2022-11-06T04:59:47;1.35;;;0.70;;
71600;SDS011;59446;52.192;4.628;2022-11-06T05:02:13;1.67;;;0.67;;
71600;SDS011;59446;52.192;4.628;2022-11-06T05:04:38;1.73;;;0.80;;
71600;SDS011;59446;52.192;4.628;2022-11-06T05:07:03;0.80;;;0.57;;
71600;SDS011;59446;52.192;4.628;2022-11-06T05:09:29;1.50;;;0.80;;
71600;SDS011;59446;52.192;4.628;2022-11-06T05:11:54;2.13;;;0.90;;
71600;SDS011;59446;52.192;4.628;2022-11-06T05:14:20;1.83;;;0.90;;
71600;SDS011;59446;52.192;4.628;2022-11-06T05:16:45;2.30;;;0.90;;
71600;SDS011;59446;52.192;4.628;2022-11-06T05:19:11;2.00;;;0.80;;
71600;SDS011;59446;52.192;4.628;2022-11-06T05:21:36;1.90;;;0.90;;
71600;SDS011;59446;52.192;4.628;2022-11-06T05:24:20;1.55;;;0.73;;
71600;SDS011;59446;52.192;4.628;2022-11-06T05:26:45;1.43;;;0.80;;
71600;SDS011;59446;52.192;4.628;2022-11-06T05:29:11;2.37;;;0.70;;
71600;SDS011;59446;52.192;4.628;2022-11-06T05:31:37;2.83;;;0.93;;
71600;SDS011;59446;52.192;4.628;2022-11-06T05:34:02;1.40;;;0.80;;
71600;SDS011;59446;52.192;4.628;2022-11-06T05:36:27;1.13;;;0.80;;
71600;SDS011;59446;52.192;4.628;2022-11-06T05:38:53;1.53;;;0.80;;
71600;SDS011;59446;52.192;4.628;2022-11-06T05:41:18;1.20;;;0.80;;
71600;SDS011;59446;52.192;4.628;2022-11-06T05:43:43;2.33;;;0.80;;
71600;SDS011;59446;52.192;4.628;2022-11-06T05:46:09;1.10;;;0.60;;
71600;SDS011;59446;52.192;4.628;2022-11-06T05:48:34;0.90;;;0.73;;
71600;SDS011;59446;52.192;4.628;2022-11-06T05:51:00;1.00;;;0.73;;
71600;SDS011;59446;52.192;4.628;2022-11-06T05:53:30;1.45;;;0.80;;
71600;SDS011;59446;52.192;4.628;2022-11-06T05:55:56;1.40;;;0.80;;
71600;SDS011;59446;52.192;4.628;2022-11-06T05:58:22;0.67;;;0.50;;
71600;SDS011;59446;52.192;4.628;2022-11-06T06:00:47;1.43;;;0.80;;
71600;SDS011;59446;52.192;4.628;2022-11-06T06:03:13;2.20;;;0.70;;
71600;SDS011;59446;52.192;4.628;2022-11-06T06:05:38;0.88;;;0.60;;
71600;SDS011;59446;52.192;4.628;2022-11-06T06:08:04;1.97;;;0.80;;
71600;SDS011;59446;52.192;4.628;2022-11-06T06:10:30;1.67;;;0.70;;
71600;SDS011;59446;52.192;4.628;2022-11-06T06:12:55;1.95;;;0.95;;
71600;SDS011;59446;52.192;4.628;2022-11-06T06:15:20;0.97;;;0.73;;
71600;SDS011;59446;52.192;4.628;2022-11-06T06:17:46;1.87;;;0.90;;
71600;SDS011;59446;52.192;4.628;2022-11-06T06:20:11;1.77;;;0.90;;
71600;SDS011;59446;52.192;4.628;2022-11-06T06:22:37;1.50;;;0.83;;
71600;SDS011;59446;52.192;4.628;2022-11-06T06:25:02;1.55;;;0.80;;
71600;SDS011;59446;52.192;4.628;2022-11-06T06:27:27;0.93;;;0.67;;
71600;SDS011;59446;52.192;4.628;2022-11-06T06:29:55;1.35;;;0.70;;
71600;SDS011;59446;52.192;4.628;2022-11-06T06:32:20;1.00;;;0.70;;
71600;SDS011;59446;52.192;4.628;2022-11-06T06:34:46;1.10;;;0.60;;
71600;SDS011;59446;52.192;4.628;2022-11-06T06:37:11;1.97;;;1.00;;
71600;SDS011;59446;52.192;4.628;2022-11-06T06:39:36;0.90;;;0.70;;
71600;SDS011;59446;52.192;4.628;2022-11-06T06:42:02;0.85;;;0.60;;
71600;SDS011;59446;52.192;4.628;2022-11-06T06:44:27;1.43;;;0.73;;
71600;SDS011;59446;52.192;4.628;2022-11-06T06:46:53;1.07;;;0.60;;
71600;SDS011;59446;52.192;4.628;2022-11-06T06:49:18;0.77;;;0.60;;
71600;SDS011;59446;52.192;4.628;2022-11-06T06:51:43;0.70;;;0.50;;
71600;SDS011;59446;52.192;4.628;2022-11-06T06:54:11;1.48;;;0.60;;
71600;SDS011;59446;52.192;4.628;2022-11-06T06:56:36;0.80;;;0.50;;
71600;SDS011;59446;52.192;4.628;2022-11-06T06:59:01;1.97;;;0.80;;
71600;SDS011;59446;52.192;4.628;2022-11-06T07:01:27;1.60;;;0.90;;
71600;SDS011;59446;52.192;4.628;2022-11-06T07:03:52;1.13;;;0.67;;
71600;SDS011;59446;52.192;4.628;2022-11-06T07:06:18;0.90;;;0.60;;
71600;SDS011;59446;52.192;4.628;2022-11-06T07:08:44;1.10;;;0.55;;
71600;SDS011;59446;52.192;4.628;2022-11-06T07:11:09;0.77;;;0.57;;
71600;SDS011;59446;52.192;4.628;2022-11-06T07:13:35;2.63;;;0.63;;
71600;SDS011;59446;52.192;4.628;2022-11-06T07:16:04;0.77;;;0.60;;
71600;SDS011;59446;52.192;4.628;2022-11-06T07:18:32;1.20;;;0.80;;
71600;SDS011;59446;52.192;4.628;2022-11-06T07:20:58;1.43;;;0.70;;
71600;SDS011;59446;52.192;4.628;2022-11-06T07:23:23;1.73;;;0.70;;
71600;SDS011;59446;52.192;4.628;2022-11-06T07:25:52;1.02;;;0.70;;
71600;SDS011;59446;52.192;4.628;2022-11-06T07:28:18;1.63;;;0.70;;
71600;SDS011;59446;52.192;4.628;2022-11-06T07:30:44;2.30;;;0.80;;
71600;SDS011;59446;52.192;4.628;2022-11-06T07:33:09;1.38;;;0.70;;
71600;SDS011;59446;52.192;4.628;2022-11-06T07:35:35;1.03;;;0.63;;
71600;SDS011;59446;52.192;4.628;2022-11-06T07:38:04;1.43;;;0.60;;
71600;SDS011;59446;52.192;4.628;2022-11-06T07:40:33;1.25;;;0.68;;
71600;SDS011;59446;52.192;4.628;2022-11-06T07:43:06;1.50;;;0.60;;
71600;SDS011;59446;52.192;4.628;2022-11-06T07:45:34;1.10;;;0.60;;
71600;SDS011;59446;52.192;4.628;2022-11-06T07:48:01;1.80;;;0.80;;
71600;SDS011;59446;52.192;4.628;2022-11-06T07:50:26;1.00;;;0.67;;
71600;SDS011;59446;52.192;4.628;2022-11-06T07:52:52;1.23;;;0.90;;
71600;SDS011;59446;52.192;4.628;2022-11-06T07:55:17;2.87;;;1.00;;
71600;SDS011;59446;52.192;4.628;2022-11-06T07:57:43;0.83;;;0.60;;
71600;SDS011;59446;52.192;4.628;2022-11-06T08:00:09;1.07;;;0.70;;
71600;SDS011;59446;52.192;4.628;2022-11-06T08:02:35;1.83;;;0.70;;
71600;SDS011;59446;52.192;4.628;2022-11-06T08:05:00;2.40;;;0.97;;
71600;SDS011;59446;52.192;4.628;2022-11-06T08:07:25;1.63;;;0.80;;
71600;SDS011;59446;52.192;4.628;2022-11-06T08:09:51;1.23;;;0.73;;
71600;SDS011;59446;52.192;4.628;2022-11-06T08:12:16;1.00;;;0.73;;
71600;SDS011;59446;52.192;4.628;2022-11-06T08:14:41;1.70;;;0.70;;
71600;SDS011;59446;52.192;4.628;2022-11-06T08:17:07;1.77;;;0.60;;
71600;SDS011;59446;52.192;4.628;2022-11-06T08:19:33;0.77;;;0.55;;
71600;SDS011;59446;52.192;4.628;2022-11-06T08:21:58;1.00;;;0.50;;
71600;SDS011;59446;52.192;4.628;2022-11-06T08:24:23;1.00;;;0.67;;
71600;SDS011;59446;52.192;4.628;2022-11-06T08:26:49;0.53;;;0.53;;
71600;SDS011;59446;52.192;4.628;2022-11-06T08:29:14;1.20;;;0.70;;
71600;SDS011;59446;52.192;4.628;2022-11-06T08:31:40;1.33;;;0.70;;
71600;SDS011;59446;52.192;4.628;2022-11-06T08:34:05;0.67;;;0.50;;
71600;SDS011;59446;52.192;4.628;2022-11-06T08:36:35;1.17;;;0.70;;
71600;SDS011;59446;52.192;4.628;2022-11-06T08:39:03;1.17;;;0.73;;
71600;SDS011;59446;52.192;4.628;2022-11-06T08:41:28;0.63;;;0.50;;
71600;SDS011;59446;52.192;4.628;2022-11-06T08:43:53;1.27;;;0.70;;
71600;SDS011;59446;52.192;4.628;2022-11-06T08:46:19;1.33;;;0.60;;
71600;SDS011;59446;52.192;4.628;2022-11-06T08:48:44;1.00;;;0.50;;
71600;SDS011;59446;52.192;4.628;2022-11-06T08:51:09;1.23;;;0.70;;
71600;SDS011;59446;52.192;4.628;2022-11-06T08:53:35;2.20;;;0.80;;
71600;SDS011;59446;52.192;4.628;2022-11-06T08:56:03;1.17;;;0.63;;
71600;SDS011;59446;52.192;4.628;2022-11-06T08:58:29;0.73;;;0.60;;
71600;SDS011;59446;52.192;4.628;2022-11-06T09:00:54;1.00;;;0.60;;
71600;SDS011;59446;52.192;4.628;2022-11-06T09:03:20;1.05;;;0.70;;
71600;SDS011;59446;52.192;4.628;2022-11-06T09:05:45;1.10;;;0.60;;
71600;SDS011;59446;52.192;4.628;2022-11-06T09:08:11;1.47;;;0.60;;
71600;SDS011;59446;52.192;4.628;2022-11-06T09:10:37;1.23;;;0.70;;
71600;SDS011;59446;52.192;4.628;2022-11-06T09:13:04;1.13;;;0.50;;
71600;SDS011;59446;52.192;4.628;2022-11-06T09:15:30;1.63;;;0.70;;
71600;SDS011;59446;52.192;4.628;2022-11-06T09:17:55;1.23;;;0.60;;
71600;SDS011;59446;52.192;4.628;2022-11-06T09:20:21;0.90;;;0.60;;
71600;SDS011;59446;52.192;4.628;2022-11-06T09:22:48;1.00;;;0.70;;
71600;SDS011;59446;52.192;4.628;2022-11-06T09:25:14;0.82;;;0.60;;
71600;SDS011;59446;52.192;4.628;2022-11-06T09:27:43;1.60;;;0.90;;
71600;SDS011;59446;52.192;4.628;2022-11-06T09:30:10;1.70;;;0.90;;
71600;SDS011;59446;52.192;4.628;2022-11-06T09:32:37;1.10;;;0.60;;
71600;SDS011;59446;52.192;4.628;2022-11-06T09:35:03;2.23;;;1.00;;
71600;SDS011;59446;52.192;4.628;2022-11-06T09:37:30;3.60;;;0.95;;
71600;SDS011;59446;52.192;4.628;2022-11-06T09:39:56;1.60;;;0.70;;
71600;SDS011;59446;52.192;4.628;2022-11-06T09:45:14;1.60;;;0.80;;
71600;SDS011;59446;52.192;4.628;2022-11-06T09:47:46;3.70;;;1.10;;
71600;SDS011;59446;52.192;4.628;2022-11-06T09:50:19;1.55;;;0.70;;
71600;SDS011;59446;52.192;4.628;2022-11-06T09:52:49;0.80;;;0.70;;
71600;SDS011;59446;52.192;4.628;2022-11-06T09:55:22;1.17;;;0.70;;
71600;SDS011;59446;52.192;4.628;2022-11-06T09:57:54;1.10;;;0.80;;
71600;SDS011;59446;52.192;4.628;2022-11-06T10:00:22;3.33;;;0.93;;
71600;SDS011;59446;52.192;4.628;2022-11-06T10:02:54;1.70;;;0.60;;
71600;SDS011;59446;52.192;4.628;2022-11-06T10:05:29;1.42;;;0.80;;
71600;SDS011;59446;52.192;4.628;2022-11-06T10:07:58;0.77;;;0.60;;
71600;SDS011;59446;52.192;4.628;2022-11-06T10:10:32;0.80;;;0.60;;
71600;SDS011;59446;52.192;4.628;2022-11-06T10:13:11;0.90;;;0.70;;
71600;SDS011;59446;52.192;4.628;2022-11-06T10:15:49;1.38;;;0.70;;
71600;SDS011;59446;52.192;4.628;2022-11-06T10:23:59;1.08;;;0.80;;
71600;SDS011;59446;52.192;4.628;2022-11-06T10:26:39;2.65;;;0.70;;
71600;SDS011;59446;52.192;4.628;2022-11-06T10:34:59;1.45;;;0.55;;
71600;SDS011;59446;52.192;4.628;2022-11-06T10:37:43;2.75;;;1.17;;
71600;SDS011;59446;52.192;4.628;2022-11-06T10:40:18;0.73;;;0.57;;
71600;SDS011;59446;52.192;4.628;2022-11-06T10:42:54;2.55;;;0.90;;
71600;SDS011;59446;52.192;4.628;2022-11-06T10:45:35;2.05;;;0.88;;
71600;SDS011;59446;52.192;4.628;2022-11-06T10:48:10;2.23;;;0.90;;
71600;SDS011;59446;52.192;4.628;2022-11-06T10:50:45;3.30;;;0.68;;
71600;SDS011;59446;52.192;4.628;2022-11-06T10:56:18;1.70;;;0.83;;
71600;SDS011;59446;52.192;4.628;2022-11-06T10:58:52;2.30;;;0.90;;
71600;SDS011;59446;52.192;4.628;2022-11-06T11:01:18;1.65;;;1.00;;
71600;SDS011;59446;52.192;4.628;2022-11-06T11:03:43;1.83;;;0.80;;
71600;SDS011;59446;52.192;4.628;2022-11-06T11:06:10;2.63;;;0.88;;
71600;SDS011;59446;52.192;4.628;2022-11-06T11:08:37;2.93;;;0.77;;
71600;SDS011;59446;52.192;4.628;2022-11-06T11:18:53;1.77;;;0.75;;
71600;SDS011;59446;52.192;4.628;2022-11-06T11:21:24;3.30;;;1.00;;
71600;SDS011;59446;52.192;4.628;2022-11-06T11:24:12;1.70;;;0.70;;
71600;SDS011;59446;52.192;4.628;2022-11-06T11:26:44;1.52;;;0.85;;
71600;SDS011;59446;52.192;4.628;2022-11-06T11:29:15;2.10;;;0.77;;
71600;SDS011;59446;52.192;4.628;2022-11-06T11:31:49;2.05;;;0.90;;
71600;SDS011;59446;52.192;4.628;2022-11-06T11:34:25;1.73;;;0.88;;
71600;SDS011;59446;52.192;4.628;2022-11-06T11:39:29;2.40;;;1.07;;
71600;SDS011;59446;52.192;4.628;2022-11-06T11:45:12;2.33;;;0.95;;
71600;SDS011;59446;52.192;4.628;2022-11-06T11:47:42;1.47;;;0.90;;
71600;SDS011;59446;52.192;4.628;2022-11-06T11:53:18;2.60;;;1.10;;
71600;SDS011;59446;52.192;4.628;2022-11-06T11:55:46;2.07;;;0.90;;
71600;SDS011;59446;52.192;4.628;2022-11-06T11:58:16;1.42;;;0.80;;
71600;SDS011;59446;52.192;4.628;2022-11-06T12:00:52;2.08;;;1.05;;
71600;SDS011;59446;52.192;4.628;2022-11-06T12:03:24;2.95;;;1.05;;
71600;SDS011;59446;52.192;4.628;2022-11-06T12:06:17;2.10;;;1.00;;
71600;SDS011;59446;52.192;4.628;2022-11-06T12:08:50;2.67;;;0.90;;
71600;SDS011;59446;52.192;4.628;2022-11-06T12:11:19;2.38;;;0.98;;
71600;SDS011;59446;52.192;4.628;2022-11-06T12:16:41;3.95;;;1.00;;
71600;SDS011;59446;52.192;4.628;2022-11-06T12:19:09;1.73;;;0.90;;
71600;SDS011;59446;52.192;4.628;2022-11-06T12:21:36;3.17;;;1.20;;
71600;SDS011;59446;52.192;4.628;2022-11-06T12:27:20;2.63;;;1.25;;
71600;SDS011;59446;52.192;4.628;2022-11-06T12:30:00;1.67;;;0.88;;
71600;SDS011;59446;52.192;4.628;2022-11-06T12:40:39;10.23;;;3.20;;
71600;SDS011;59446;52.192;4.628;2022-11-06T13:00:10;14.57;;;4.50;;
71600;SDS011;59446;52.192;4.628;2022-11-06T13:05:45;8.55;;;3.08;;
71600;SDS011;59446;52.192;4.628;2022-11-06T13:19:44;7.70;;;2.60;;
71600;SDS011;59446;52.192;4.628;2022-11-06T13:22:35;10.73;;;2.47;;
71600;SDS011;59446;52.192;4.628;2022-11-06T13:25:21;8.30;;;2.58;;
71600;SDS011;59446;52.192;4.628;2022-11-06T13:30:40;6.05;;;2.03;;
71600;SDS011;59446;52.192;4.628;2022-11-06T13:33:22;4.82;;;1.98;;
71600;SDS011;59446;52.192;4.628;2022-11-06T13:35:50;6.77;;;2.20;;
71600;SDS011;59446;52.192;4.628;2022-11-06T13:38:35;6.55;;;2.40;;
71600;SDS011;59446;52.192;4.628;2022-11-06T13:41:06;10.15;;;3.08;;
71600;SDS011;59446;52.192;4.628;2022-11-06T13:44:06;10.30;;;3.27;;
71600;SDS011;59446;52.192;4.628;2022-11-06T13:46:53;9.68;;;2.78;;
71600;SDS011;59446;52.192;4.628;2022-11-06T13:55:15;8.07;;;2.63;;
71600;SDS011;59446;52.192;4.628;2022-11-06T14:06:21;5.65;;;2.25;;
71600;SDS011;59446;52.192;4.628;2022-11-06T14:08:53;7.30;;;2.38;;
71600;SDS011;59446;52.192;4.628;2022-11-06T14:11:27;9.03;;;2.20;;
71600;SDS011;59446;52.192;4.628;2022-11-06T14:14:23;6.45;;;1.70;;
71600;SDS011;59446;52.192;4.628;2022-11-06T14:22:16;5.03;;;1.60;;
71600;SDS011;59446;52.192;4.628;2022-11-06T14:24:56;5.00;;;1.70;;
71600;SDS011;59446;52.192;4.628;2022-11-06T14:29:54;4.80;;;1.60;;
71600;SDS011;59446;52.192;4.628;2022-11-06T14:34:54;4.53;;;1.60;;
71600;SDS011;59446;52.192;4.628;2022-11-06T14:37:43;6.37;;;2.00;;
71600;SDS011;59446;52.192;4.628;2022-11-06T14:40:12;4.82;;;1.85;;
71600;SDS011;59446;52.192;4.628;2022-11-06T14:42:39;5.80;;;1.95;;
71600;SDS011;59446;52.192;4.628;2022-11-06T14:45:11;4.60;;;1.50;;
71600;SDS011;59446;52.192;4.628;2022-11-06T14:47:38;4.80;;;1.70;;
71600;SDS011;59446;52.192;4.628;2022-11-06T14:52:48;4.32;;;1.67;;
71600;SDS011;59446;52.192;4.628;2022-11-06T14:55:27;2.93;;;1.53;;
71600;SDS011;59446;52.192;4.628;2022-11-06T14:58:12;3.90;;;1.50;;
71600;SDS011;59446;52.192;4.628;2022-11-06T15:03:49;5.03;;;1.50;;
71600;SDS011;59446;52.192;4.628;2022-11-06T15:13:54;4.53;;;1.52;;
71600;SDS011;59446;52.192;4.628;2022-11-06T15:16:38;2.10;;;1.00;;
71600;SDS011;59446;52.192;4.628;2022-11-06T15:19:12;4.97;;;1.38;;
71600;SDS011;59446;52.192;4.628;2022-11-06T15:21:49;2.40;;;1.00;;
71600;SDS011;59446;52.192;4.628;2022-11-06T15:24:27;4.33;;;1.33;;
71600;SDS011;59446;52.192;4.628;2022-11-06T15:26:58;3.08;;;1.25;;
71600;SDS011;59446;52.192;4.628;2022-11-06T15:29:32;3.90;;;1.40;;
71600;SDS011;59446;52.192;4.628;2022-11-06T15:32:03;5.70;;;1.30;;
71600;SDS011;59446;52.192;4.628;2022-11-06T15:34:39;2.42;;;1.20;;
71600;SDS011;59446;52.192;4.628;2022-11-06T15:37:17;3.10;;;1.13;;
71600;SDS011;59446;52.192;4.628;2022-11-06T15:39:51;5.03;;;1.50;;
71600;SDS011;59446;52.192;4.628;2022-11-06T15:42:19;3.77;;;1.30;;
71600;SDS011;59446;52.192;4.628;2022-11-06T15:44:48;3.40;;;1.50;;
71600;SDS011;59446;52.192;4.628;2022-11-06T15:47:21;2.75;;;1.30;;
71600;SDS011;59446;52.192;4.628;2022-11-06T15:52:51;2.72;;;1.10;;
71600;SDS011;59446;52.192;4.628;2022-11-06T15:55:30;3.43;;;1.33;;
71600;SDS011;59446;52.192;4.628;2022-11-06T15:58:22;3.17;;;1.27;;
71600;SDS011;59446;52.192;4.628;2022-11-06T16:00:50;3.55;;;1.13;;
71600;SDS011;59446;52.192;4.628;2022-11-06T16:03:20;2.87;;;1.40;;
71600;SDS011;59446;52.192;4.628;2022-11-06T16:05:48;3.25;;;1.13;;
71600;SDS011;59446;52.192;4.628;2022-11-06T16:08:14;2.83;;;1.00;;
71600;SDS011;59446;52.192;4.628;2022-11-06T16:10:42;4.53;;;1.42;;
71600;SDS011;59446;52.192;4.628;2022-11-06T16:13:09;2.33;;;1.00;;
71600;SDS011;59446;52.192;4.628;2022-11-06T16:15:55;2.83;;;1.17;;
71600;SDS011;59446;52.192;4.628;2022-11-06T16:26:16;1.60;;;1.07;;
71600;SDS011;59446;52.192;4.628;2022-11-06T16:28:48;3.08;;;0.88;;
71600;SDS011;59446;52.192;4.628;2022-11-06T16:31:16;4.10;;;1.02;;
71600;SDS011;59446;52.192;4.628;2022-11-06T16:34:00;2.50;;;1.00;;
71600;SDS011;59446;52.192;4.628;2022-11-06T16:36:29;3.42;;;1.17;;
71600;SDS011;59446;52.192;4.628;2022-11-06T16:47:15;2.33;;;0.87;;
71600;SDS011;59446;52.192;4.628;2022-11-06T16:49:54;3.80;;;1.08;;
71600;SDS011;59446;52.192;4.628;2022-11-06T16:52:33;3.28;;;1.00;;
71600;SDS011;59446;52.192;4.628;2022-11-06T16:55:04;3.30;;;1.20;;
71600;SDS011;59446;52.192;4.628;2022-11-06T16:57:43;1.75;;;1.00;;
71600;SDS011;59446;52.192;4.628;2022-11-06T17:02:56;3.03;;;1.00;;
71600;SDS011;59446;52.192;4.628;2022-11-06T17:05:25;1.00;;;0.70;;
71600;SDS011;59446;52.192;4.628;2022-11-06T17:08:36;2.55;;;1.08;;
71600;SDS011;59446;52.192;4.628;2022-11-06T17:10:47;2.70;;;1.17;;
71600;SDS011;59446;52.192;4.628;2022-11-06T17:13:20;2.03;;;1.00;;
71600;SDS011;59446;52.192;4.628;2022-11-06T17:15:55;2.55;;;1.00;;
71600;SDS011;59446;52.192;4.628;2022-11-06T17:18:28;1.58;;;0.90;;
71600;SDS011;59446;52.192;4.628;2022-11-06T17:20:58;2.97;;;0.90;;
71600;SDS011;59446;52.192;4.628;2022-11-06T17:23:25;2.88;;;1.05;;
71600;SDS011;59446;52.192;4.628;2022-11-06T17:25:52;2.50;;;0.88;;
71600;SDS011;59446;52.192;4.628;2022-11-06T17:28:21;3.40;;;0.88;;
71600;SDS011;59446;52.192;4.628;2022-11-06T17:30:47;2.63;;;1.10;;
71600;SDS011;59446;52.192;4.628;2022-11-06T17:33:13;4.97;;;1.40;;
71600;SDS011;59446;52.192;4.628;2022-11-06T17:35:39;2.33;;;1.10;;
71600;SDS011;59446;52.192;4.628;2022-11-06T17:38:04;3.15;;;0.90;;
71600;SDS011;59446;52.192;4.628;2022-11-06T17:40:30;1.13;;;0.80;;
71600;SDS011;59446;52.192;4.628;2022-11-06T17:42:55;2.00;;;1.00;;
71600;SDS011;59446;52.192;4.628;2022-11-06T17:45:21;1.47;;;0.77;;
71600;SDS011;59446;52.192;4.628;2022-11-06T17:47:46;3.88;;;1.02;;
71600;SDS011;59446;52.192;4.628;2022-11-06T17:50:12;1.97;;;0.90;;
71600;SDS011;59446;52.192;4.628;2022-11-06T17:52:37;2.17;;;1.30;;
71600;SDS011;59446;52.192;4.628;2022-11-06T17:55:03;3.08;;;1.00;;
71600;SDS011;59446;52.192;4.628;2022-11-06T17:57:30;2.80;;;0.90;;
71600;SDS011;59446;52.192;4.628;2022-11-06T17:59:55;1.65;;;0.98;;
71600;SDS011;59446;52.192;4.628;2022-11-06T18:02:21;2.53;;;0.90;;
71600;SDS011;59446;52.192;4.628;2022-11-06T18:04:46;1.83;;;0.90;;